Terminal Aerodrome Forecast
Issued by NWS Melbourne, FL

Home | Current Version | Previous Version | Text Only | Print | Product List | Glossary On
Versions: 1 2 3 4 5 6 7 8 9 10 11 12
000
FTUS42 KMLB 192300
TAFMLB
TAF
KMLB 192339Z 2000/2024 36006KT P6SM SCT035 SCT250
     FM200300 05006KT P6SM BKN035
     FM201500 11007KT P6SM SCT035 BKN250=

USA.gov is the U.S. government's official web portal to all federal, state and local government web resources and services.